sensor_id;sensor_type;location;lat;lon;timestamp;P1;durP1;ratioP1;P2;durP2;ratioP2
31782;SDS011;18351;47.560;9.708;2023-02-12T00:01:51;48.15;;;28.27;;
31782;SDS011;18351;47.560;9.708;2023-02-12T00:04:17;48.17;;;27.17;;
31782;SDS011;18351;47.560;9.708;2023-02-12T00:06:42;50.90;;;28.05;;
31782;SDS011;18351;47.560;9.708;2023-02-12T00:09:08;43.60;;;25.92;;
31782;SDS011;18351;47.560;9.708;2023-02-12T00:11:33;49.20;;;26.08;;
31782;SDS011;18351;47.560;9.708;2023-02-12T00:14:00;49.75;;;28.67;;
31782;SDS011;18351;47.560;9.708;2023-02-12T00:16:26;46.53;;;26.63;;
31782;SDS011;18351;47.560;9.708;2023-02-12T00:18:53;49.40;;;28.58;;
31782;SDS011;18351;47.560;9.708;2023-02-12T00:21:21;58.05;;;29.20;;
31782;SDS011;18351;47.560;9.708;2023-02-12T00:23:47;51.05;;;28.50;;
31782;SDS011;18351;47.560;9.708;2023-02-12T00:26:14;51.75;;;27.63;;
31782;SDS011;18351;47.560;9.708;2023-02-12T00:28:41;50.10;;;27.50;;
31782;SDS011;18351;47.560;9.708;2023-02-12T00:31:11;48.00;;;26.33;;
31782;SDS011;18351;47.560;9.708;2023-02-12T00:33:38;59.15;;;28.98;;
31782;SDS011;18351;47.560;9.708;2023-02-12T00:36:05;53.38;;;29.08;;
31782;SDS011;18351;47.560;9.708;2023-02-12T00:38:32;52.13;;;28.23;;
31782;SDS011;18351;47.560;9.708;2023-02-12T00:40:58;56.15;;;28.40;;
31782;SDS011;18351;47.560;9.708;2023-02-12T00:43:23;52.25;;;27.35;;
31782;SDS011;18351;47.560;9.708;2023-02-12T00:45:49;57.58;;;29.70;;
31782;SDS011;18351;47.560;9.708;2023-02-12T00:48:15;51.92;;;28.40;;
31782;SDS011;18351;47.560;9.708;2023-02-12T00:50:43;45.10;;;26.67;;
31782;SDS011;18351;47.560;9.708;2023-02-12T00:53:09;53.40;;;27.92;;
31782;SDS011;18351;47.560;9.708;2023-02-12T00:55:35;44.65;;;26.38;;
31782;SDS011;18351;47.560;9.708;2023-02-12T00:58:01;56.85;;;29.95;;
31782;SDS011;18351;47.560;9.708;2023-02-12T01:00:26;51.08;;;27.67;;
31782;SDS011;18351;47.560;9.708;2023-02-12T01:02:52;49.70;;;28.38;;
31782;SDS011;18351;47.560;9.708;2023-02-12T01:05:18;49.03;;;27.67;;
31782;SDS011;18351;47.560;9.708;2023-02-12T01:07:47;52.22;;;27.55;;
31782;SDS011;18351;47.560;9.708;2023-02-12T01:10:17;53.03;;;28.73;;
31782;SDS011;18351;47.560;9.708;2023-02-12T01:12:44;49.70;;;27.13;;
31782;SDS011;18351;47.560;9.708;2023-02-12T01:15:10;52.03;;;28.23;;
31782;SDS011;18351;47.560;9.708;2023-02-12T01:17:36;50.30;;;26.70;;
31782;SDS011;18351;47.560;9.708;2023-02-12T01:20:02;47.03;;;26.65;;
31782;SDS011;18351;47.560;9.708;2023-02-12T01:22:32;43.97;;;26.08;;
31782;SDS011;18351;47.560;9.708;2023-02-12T01:24:59;44.92;;;25.13;;
31782;SDS011;18351;47.560;9.708;2023-02-12T01:27:24;44.97;;;24.80;;
31782;SDS011;18351;47.560;9.708;2023-02-12T01:29:50;45.72;;;25.95;;
31782;SDS011;18351;47.560;9.708;2023-02-12T01:32:15;48.75;;;25.35;;
31782;SDS011;18351;47.560;9.708;2023-02-12T01:34:41;48.75;;;28.08;;
31782;SDS011;18351;47.560;9.708;2023-02-12T01:37:07;50.05;;;26.73;;
31782;SDS011;18351;47.560;9.708;2023-02-12T01:39:33;45.38;;;26.50;;
31782;SDS011;18351;47.560;9.708;2023-02-12T01:41:59;45.63;;;25.23;;
31782;SDS011;18351;47.560;9.708;2023-02-12T01:44:27;52.72;;;26.17;;
31782;SDS011;18351;47.560;9.708;2023-02-12T01:46:55;46.92;;;25.98;;
31782;SDS011;18351;47.560;9.708;2023-02-12T01:49:33;40.70;;;23.52;;
31782;SDS011;18351;47.560;9.708;2023-02-12T01:52:06;44.75;;;24.50;;
31782;SDS011;18351;47.560;9.708;2023-02-12T01:54:41;44.28;;;24.30;;
31782;SDS011;18351;47.560;9.708;2023-02-12T01:57:08;44.20;;;24.55;;
31782;SDS011;18351;47.560;9.708;2023-02-12T01:59:36;44.75;;;24.17;;
31782;SDS011;18351;47.560;9.708;2023-02-12T02:02:03;41.83;;;23.38;;
31782;SDS011;18351;47.560;9.708;2023-02-12T02:04:38;45.58;;;23.27;;
31782;SDS011;18351;47.560;9.708;2023-02-12T02:07:08;47.80;;;25.08;;
31782;SDS011;18351;47.560;9.708;2023-02-12T02:09:35;41.47;;;23.52;;
31782;SDS011;18351;47.560;9.708;2023-02-12T02:12:03;42.05;;;24.25;;
31782;SDS011;18351;47.560;9.708;2023-02-12T02:14:48;39.78;;;23.63;;
31782;SDS011;18351;47.560;9.708;2023-02-12T02:20:20;40.13;;;23.48;;
31782;SDS011;18351;47.560;9.708;2023-02-12T02:28:49;42.75;;;24.25;;
31782;SDS011;18351;47.560;9.708;2023-02-12T02:34:32;37.08;;;21.80;;
31782;SDS011;18351;47.560;9.708;2023-02-12T02:39:36;39.75;;;23.25;;
31782;SDS011;18351;47.560;9.708;2023-02-12T02:44:53;43.97;;;22.73;;
31782;SDS011;18351;47.560;9.708;2023-02-12T02:47:25;40.03;;;21.95;;
31782;SDS011;18351;47.560;9.708;2023-02-12T02:50:03;40.70;;;22.00;;
31782;SDS011;18351;47.560;9.708;2023-02-12T02:52:44;37.10;;;21.48;;
31782;SDS011;18351;47.560;9.708;2023-02-12T02:55:18;37.70;;;21.42;;
31782;SDS011;18351;47.560;9.708;2023-02-12T02:57:48;37.35;;;20.08;;
31782;SDS011;18351;47.560;9.708;2023-02-12T03:00:25;38.28;;;21.10;;
31782;SDS011;18351;47.560;9.708;2023-02-12T03:05:41;40.25;;;20.65;;
31782;SDS011;18351;47.560;9.708;2023-02-12T03:08:13;35.53;;;20.65;;
31782;SDS011;18351;47.560;9.708;2023-02-12T03:10:46;40.13;;;22.20;;
31782;SDS011;18351;47.560;9.708;2023-02-12T03:13:21;39.15;;;21.52;;
31782;SDS011;18351;47.560;9.708;2023-02-12T03:16:15;34.55;;;20.65;;
31782;SDS011;18351;47.560;9.708;2023-02-12T03:18:47;40.42;;;22.30;;
31782;SDS011;18351;47.560;9.708;2023-02-12T03:21:40;42.05;;;20.83;;
31782;SDS011;18351;47.560;9.708;2023-02-12T03:24:18;39.53;;;21.40;;
31782;SDS011;18351;47.560;9.708;2023-02-12T03:29:36;36.10;;;20.92;;
31782;SDS011;18351;47.560;9.708;2023-02-12T03:39:57;33.20;;;20.27;;
31782;SDS011;18351;47.560;9.708;2023-02-12T03:42:34;35.38;;;18.88;;
31782;SDS011;18351;47.560;9.708;2023-02-12T03:45:18;30.17;;;18.75;;
31782;SDS011;18351;47.560;9.708;2023-02-12T03:50:50;32.42;;;18.63;;
31782;SDS011;18351;47.560;9.708;2023-02-12T03:53:23;34.72;;;19.27;;
31782;SDS011;18351;47.560;9.708;2023-02-12T03:55:52;34.53;;;19.10;;
31782;SDS011;18351;47.560;9.708;2023-02-12T03:58:31;36.05;;;19.67;;
31782;SDS011;18351;47.560;9.708;2023-02-12T04:00:59;34.25;;;18.27;;
31782;SDS011;18351;47.560;9.708;2023-02-12T04:03:26;28.90;;;17.13;;
31782;SDS011;18351;47.560;9.708;2023-02-12T04:05:53;32.15;;;17.13;;
31782;SDS011;18351;47.560;9.708;2023-02-12T04:08:18;36.63;;;19.00;;
31782;SDS011;18351;47.560;9.708;2023-02-12T04:11:07;27.58;;;16.45;;
31782;SDS011;18351;47.560;9.708;2023-02-12T04:13:43;29.65;;;17.02;;
31782;SDS011;18351;47.560;9.708;2023-02-12T04:16:24;34.53;;;18.73;;
31782;SDS011;18351;47.560;9.708;2023-02-12T04:18:57;30.25;;;16.35;;
31782;SDS011;18351;47.560;9.708;2023-02-12T04:24:18;26.75;;;16.20;;
31782;SDS011;18351;47.560;9.708;2023-02-12T04:26:58;29.80;;;15.80;;
31782;SDS011;18351;47.560;9.708;2023-02-12T04:37:44;25.48;;;15.57;;
31782;SDS011;18351;47.560;9.708;2023-02-12T04:40:15;26.02;;;15.45;;
31782;SDS011;18351;47.560;9.708;2023-02-12T04:42:43;25.48;;;15.02;;
31782;SDS011;18351;47.560;9.708;2023-02-12T04:45:10;28.00;;;14.60;;
31782;SDS011;18351;47.560;9.708;2023-02-12T04:47:38;26.40;;;14.82;;
31782;SDS011;18351;47.560;9.708;2023-02-12T04:50:04;24.88;;;15.20;;
31782;SDS011;18351;47.560;9.708;2023-02-12T04:52:30;25.33;;;15.35;;
31782;SDS011;18351;47.560;9.708;2023-02-12T04:54:55;25.67;;;15.10;;
31782;SDS011;18351;47.560;9.708;2023-02-12T04:57:21;24.92;;;15.48;;
31782;SDS011;18351;47.560;9.708;2023-02-12T04:59:46;26.45;;;15.18;;
31782;SDS011;18351;47.560;9.708;2023-02-12T05:02:12;20.55;;;14.10;;
31782;SDS011;18351;47.560;9.708;2023-02-12T05:04:37;25.05;;;13.95;;
31782;SDS011;18351;47.560;9.708;2023-02-12T05:07:03;24.60;;;15.38;;
31782;SDS011;18351;47.560;9.708;2023-02-12T05:09:28;23.15;;;14.07;;
31782;SDS011;18351;47.560;9.708;2023-02-12T05:11:54;23.85;;;14.38;;
31782;SDS011;18351;47.560;9.708;2023-02-12T05:14:19;25.45;;;14.23;;
31782;SDS011;18351;47.560;9.708;2023-02-12T05:16:48;31.13;;;17.33;;
31782;SDS011;18351;47.560;9.708;2023-02-12T05:19:14;39.13;;;19.60;;
31782;SDS011;18351;47.560;9.708;2023-02-12T05:21:39;51.30;;;24.30;;
31782;SDS011;18351;47.560;9.708;2023-02-12T05:24:05;58.60;;;26.77;;
31782;SDS011;18351;47.560;9.708;2023-02-12T05:26:31;58.70;;;27.33;;
31782;SDS011;18351;47.560;9.708;2023-02-12T05:28:57;43.47;;;20.77;;
31782;SDS011;18351;47.560;9.708;2023-02-12T05:31:22;26.27;;;14.77;;
31782;SDS011;18351;47.560;9.708;2023-02-12T05:33:49;25.77;;;14.02;;
31782;SDS011;18351;47.560;9.708;2023-02-12T05:36:16;22.98;;;13.68;;
31782;SDS011;18351;47.560;9.708;2023-02-12T05:38:46;22.90;;;14.00;;
31782;SDS011;18351;47.560;9.708;2023-02-12T05:41:16;19.00;;;12.63;;
31782;SDS011;18351;47.560;9.708;2023-02-12T05:43:46;20.50;;;11.70;;
31782;SDS011;18351;47.560;9.708;2023-02-12T05:46:13;22.67;;;12.95;;
31782;SDS011;18351;47.560;9.708;2023-02-12T05:48:39;20.83;;;13.05;;
31782;SDS011;18351;47.560;9.708;2023-02-12T05:51:08;19.25;;;11.65;;
31782;SDS011;18351;47.560;9.708;2023-02-12T05:53:36;19.33;;;11.70;;
31782;SDS011;18351;47.560;9.708;2023-02-12T05:58:40;28.95;;;15.85;;
31782;SDS011;18351;47.560;9.708;2023-02-12T06:01:10;30.40;;;15.50;;
31782;SDS011;18351;47.560;9.708;2023-02-12T06:03:39;22.03;;;13.87;;
31782;SDS011;18351;47.560;9.708;2023-02-12T06:06:04;30.58;;;15.75;;
31782;SDS011;18351;47.560;9.708;2023-02-12T06:08:30;18.83;;;12.48;;
31782;SDS011;18351;47.560;9.708;2023-02-12T06:11:00;23.70;;;13.00;;
31782;SDS011;18351;47.560;9.708;2023-02-12T06:13:27;19.70;;;12.75;;
31782;SDS011;18351;47.560;9.708;2023-02-12T06:15:53;20.77;;;12.90;;
31782;SDS011;18351;47.560;9.708;2023-02-12T06:18:19;23.10;;;13.18;;
31782;SDS011;18351;47.560;9.708;2023-02-12T06:20:44;23.15;;;13.10;;
31782;SDS011;18351;47.560;9.708;2023-02-12T06:23:10;24.60;;;14.52;;
31782;SDS011;18351;47.560;9.708;2023-02-12T06:25:35;23.65;;;13.82;;
31782;SDS011;18351;47.560;9.708;2023-02-12T06:28:01;23.20;;;13.70;;
31782;SDS011;18351;47.560;9.708;2023-02-12T06:30:26;24.27;;;13.57;;
31782;SDS011;18351;47.560;9.708;2023-02-12T06:32:52;20.45;;;12.43;;
31782;SDS011;18351;47.560;9.708;2023-02-12T06:35:18;25.52;;;13.65;;
31782;SDS011;18351;47.560;9.708;2023-02-12T06:37:43;22.40;;;13.43;;
31782;SDS011;18351;47.560;9.708;2023-02-12T06:40:09;24.30;;;13.15;;
31782;SDS011;18351;47.560;9.708;2023-02-12T06:42:34;20.70;;;11.95;;
31782;SDS011;18351;47.560;9.708;2023-02-12T06:45:00;22.83;;;13.18;;
31782;SDS011;18351;47.560;9.708;2023-02-12T06:47:27;25.33;;;13.30;;
31782;SDS011;18351;47.560;9.708;2023-02-12T06:49:52;24.02;;;12.55;;
31782;SDS011;18351;47.560;9.708;2023-02-12T06:52:18;18.60;;;11.95;;
31782;SDS011;18351;47.560;9.708;2023-02-12T06:54:45;20.48;;;12.27;;
31782;SDS011;18351;47.560;9.708;2023-02-12T06:57:10;17.73;;;12.65;;
31782;SDS011;18351;47.560;9.708;2023-02-12T06:59:36;19.10;;;12.25;;
31782;SDS011;18351;47.560;9.708;2023-02-12T07:02:01;24.77;;;14.55;;
31782;SDS011;18351;47.560;9.708;2023-02-12T07:04:27;25.90;;;13.57;;
31782;SDS011;18351;47.560;9.708;2023-02-12T07:06:52;22.23;;;12.57;;
31782;SDS011;18351;47.560;9.708;2023-02-12T07:09:18;20.35;;;12.65;;
31782;SDS011;18351;47.560;9.708;2023-02-12T07:11:43;21.05;;;12.40;;
31782;SDS011;18351;47.560;9.708;2023-02-12T07:14:13;19.23;;;12.48;;
31782;SDS011;18351;47.560;9.708;2023-02-12T07:16:40;21.95;;;14.25;;
31782;SDS011;18351;47.560;9.708;2023-02-12T07:19:05;27.02;;;16.58;;
31782;SDS011;18351;47.560;9.708;2023-02-12T07:21:31;25.30;;;16.85;;
31782;SDS011;18351;47.560;9.708;2023-02-12T07:23:57;30.52;;;18.27;;
31782;SDS011;18351;47.560;9.708;2023-02-12T07:26:22;24.85;;;15.77;;
31782;SDS011;18351;47.560;9.708;2023-02-12T07:28:48;35.85;;;22.02;;
31782;SDS011;18351;47.560;9.708;2023-02-12T07:31:16;41.63;;;22.92;;
31782;SDS011;18351;47.560;9.708;2023-02-12T07:33:44;55.22;;;31.27;;
31782;SDS011;18351;47.560;9.708;2023-02-12T07:36:10;60.50;;;33.72;;
31782;SDS011;18351;47.560;9.708;2023-02-12T07:38:40;44.10;;;25.15;;
31782;SDS011;18351;47.560;9.708;2023-02-12T07:43:43;46.05;;;25.35;;
31782;SDS011;18351;47.560;9.708;2023-02-12T07:48:45;46.72;;;25.52;;
31782;SDS011;18351;47.560;9.708;2023-02-12T07:51:13;42.90;;;23.77;;
31782;SDS011;18351;47.560;9.708;2023-02-12T07:53:40;45.70;;;22.70;;
31782;SDS011;18351;47.560;9.708;2023-02-12T07:56:10;46.05;;;23.17;;
31782;SDS011;18351;47.560;9.708;2023-02-12T07:58:38;46.90;;;23.17;;
31782;SDS011;18351;47.560;9.708;2023-02-12T08:01:15;42.08;;;23.70;;
31782;SDS011;18351;47.560;9.708;2023-02-12T08:03:43;44.25;;;23.45;;
31782;SDS011;18351;47.560;9.708;2023-02-12T08:06:10;46.88;;;25.95;;
31782;SDS011;18351;47.560;9.708;2023-02-12T08:08:37;48.72;;;24.83;;
31782;SDS011;18351;47.560;9.708;2023-02-12T08:11:04;45.60;;;23.58;;
31782;SDS011;18351;47.560;9.708;2023-02-12T08:13:31;43.53;;;23.33;;
31782;SDS011;18351;47.560;9.708;2023-02-12T08:16:04;38.58;;;22.00;;
31782;SDS011;18351;47.560;9.708;2023-02-12T08:18:32;34.72;;;20.58;;
31782;SDS011;18351;47.560;9.708;2023-02-12T08:21:03;30.55;;;17.95;;
31782;SDS011;18351;47.560;9.708;2023-02-12T08:23:30;29.48;;;17.52;;
31782;SDS011;18351;47.560;9.708;2023-02-12T08:26:09;32.45;;;19.15;;
31782;SDS011;18351;47.560;9.708;2023-02-12T08:28:38;30.70;;;17.80;;
31782;SDS011;18351;47.560;9.708;2023-02-12T08:31:07;34.83;;;19.42;;
31782;SDS011;18351;47.560;9.708;2023-02-12T08:33:34;31.63;;;19.35;;
31782;SDS011;18351;47.560;9.708;2023-02-12T08:36:01;36.88;;;21.98;;
31782;SDS011;18351;47.560;9.708;2023-02-12T08:38:34;34.55;;;20.35;;
31782;SDS011;18351;47.560;9.708;2023-02-12T08:41:02;34.63;;;20.95;;
31782;SDS011;18351;47.560;9.708;2023-02-12T08:43:29;35.42;;;22.33;;
31782;SDS011;18351;47.560;9.708;2023-02-12T08:46:00;33.75;;;20.77;;
31782;SDS011;18351;47.560;9.708;2023-02-12T08:48:29;35.15;;;20.17;;
31782;SDS011;18351;47.560;9.708;2023-02-12T08:50:56;38.30;;;20.88;;
31782;SDS011;18351;47.560;9.708;2023-02-12T08:53:31;31.75;;;18.08;;
31782;SDS011;18351;47.560;9.708;2023-02-12T08:55:57;32.03;;;19.33;;
31782;SDS011;18351;47.560;9.708;2023-02-12T08:58:23;35.70;;;21.45;;
31782;SDS011;18351;47.560;9.708;2023-02-12T09:00:48;34.47;;;21.35;;
31782;SDS011;18351;47.560;9.708;2023-02-12T09:03:14;36.40;;;22.00;;
31782;SDS011;18351;47.560;9.708;2023-02-12T09:05:40;38.80;;;21.60;;
31782;SDS011;18351;47.560;9.708;2023-02-12T09:08:06;43.92;;;21.67;;
31782;SDS011;18351;47.560;9.708;2023-02-12T09:10:32;32.63;;;19.90;;
31782;SDS011;18351;47.560;9.708;2023-02-12T09:12:58;37.78;;;22.23;;
31782;SDS011;18351;47.560;9.708;2023-02-12T09:15:24;31.85;;;19.73;;
31782;SDS011;18351;47.560;9.708;2023-02-12T09:17:49;35.78;;;21.02;;
31782;SDS011;18351;47.560;9.708;2023-02-12T09:20:15;40.22;;;20.25;;
31782;SDS011;18351;47.560;9.708;2023-02-12T09:22:40;34.40;;;19.45;;
31782;SDS011;18351;47.560;9.708;2023-02-12T09:25:06;34.85;;;19.27;;
31782;SDS011;18351;47.560;9.708;2023-02-12T09:27:32;31.80;;;19.15;;
31782;SDS011;18351;47.560;9.708;2023-02-12T09:29:57;29.08;;;18.40;;
31782;SDS011;18351;47.560;9.708;2023-02-12T09:32:23;34.05;;;19.38;;
31782;SDS011;18351;47.560;9.708;2023-02-12T09:34:48;31.55;;;19.20;;
31782;SDS011;18351;47.560;9.708;2023-02-12T09:37:14;30.15;;;18.13;;
31782;SDS011;18351;47.560;9.708;2023-02-12T09:39:39;35.00;;;20.80;;
31782;SDS011;18351;47.560;9.708;2023-02-12T09:45:16;31.40;;;20.77;;
31782;SDS011;18351;47.560;9.708;2023-02-12T09:47:41;29.00;;;18.23;;
31782;SDS011;18351;47.560;9.708;2023-02-12T09:52:51;27.40;;;17.60;;
31782;SDS011;18351;47.560;9.708;2023-02-12T09:55:18;30.90;;;17.83;;
31782;SDS011;18351;47.560;9.708;2023-02-12T09:57:46;25.85;;;16.23;;
31782;SDS011;18351;47.560;9.708;2023-02-12T10:00:30;31.02;;;19.10;;
31782;SDS011;18351;47.560;9.708;2023-02-12T10:02:59;29.45;;;18.17;;
31782;SDS011;18351;47.560;9.708;2023-02-12T10:05:31;31.40;;;18.30;;
31782;SDS011;18351;47.560;9.708;2023-02-12T10:08:05;33.85;;;19.25;;
31782;SDS011;18351;47.560;9.708;2023-02-12T10:13:42;27.23;;;18.35;;
31782;SDS011;18351;47.560;9.708;2023-02-12T10:25:22;28.23;;;17.38;;
31782;SDS011;18351;47.560;9.708;2023-02-12T10:27:54;30.77;;;17.38;;
31782;SDS011;18351;47.560;9.708;2023-02-12T10:30:22;23.73;;;16.45;;
31782;SDS011;18351;47.560;9.708;2023-02-12T10:33:04;26.52;;;17.13;;
31782;SDS011;18351;47.560;9.708;2023-02-12T10:35:35;27.38;;;17.48;;
31782;SDS011;18351;47.560;9.708;2023-02-12T10:38:27;25.60;;;15.65;;
31782;SDS011;18351;47.560;9.708;2023-02-12T10:40:56;26.98;;;15.70;;
31782;SDS011;18351;47.560;9.708;2023-02-12T10:43:25;24.00;;;15.10;;
31782;SDS011;18351;47.560;9.708;2023-02-12T10:45:51;24.20;;;15.50;;
31782;SDS011;18351;47.560;9.708;2023-02-12T10:48:21;22.30;;;14.73;;
31782;SDS011;18351;47.560;9.708;2023-02-12T10:56:12;23.02;;;14.85;;
31782;SDS011;18351;47.560;9.708;2023-02-12T10:58:51;24.13;;;16.02;;
31782;SDS011;18351;47.560;9.708;2023-02-12T11:01:26;25.48;;;16.02;;
31782;SDS011;18351;47.560;9.708;2023-02-12T11:03:54;27.42;;;16.95;;
31782;SDS011;18351;47.560;9.708;2023-02-12T11:06:23;25.10;;;17.35;;
31782;SDS011;18351;47.560;9.708;2023-02-12T11:08:53;25.75;;;17.45;;
31782;SDS011;18351;47.560;9.708;2023-02-12T11:11:24;24.02;;;16.75;;
31782;SDS011;18351;47.560;9.708;2023-02-12T11:13:56;25.30;;;16.92;;
31782;SDS011;18351;47.560;9.708;2023-02-12T11:16:33;24.98;;;17.52;;
31782;SDS011;18351;47.560;9.708;2023-02-12T11:19:02;23.90;;;17.38;;
31782;SDS011;18351;47.560;9.708;2023-02-12T11:21:33;26.85;;;17.83;;
31782;SDS011;18351;47.560;9.708;2023-02-12T11:27:10;23.80;;;16.63;;
31782;SDS011;18351;47.560;9.708;2023-02-12T11:29:37;25.27;;;18.27;;
31782;SDS011;18351;47.560;9.708;2023-02-12T11:32:04;28.15;;;18.63;;
31782;SDS011;18351;47.560;9.708;2023-02-12T11:34:36;32.33;;;19.70;;
31782;SDS011;18351;47.560;9.708;2023-02-12T11:37:01;27.73;;;19.08;;
31782;SDS011;18351;47.560;9.708;2023-02-12T11:39:30;29.60;;;19.38;;
31782;SDS011;18351;47.560;9.708;2023-02-12T11:41:59;31.80;;;21.25;;
31782;SDS011;18351;47.560;9.708;2023-02-12T11:44:29;34.38;;;20.42;;
31782;SDS011;18351;47.560;9.708;2023-02-12T11:47:01;31.00;;;20.02;;
31782;SDS011;18351;47.560;9.708;2023-02-12T11:49:33;33.30;;;21.20;;
31782;SDS011;18351;47.560;9.708;2023-02-12T11:52:04;32.28;;;21.27;;
31782;SDS011;18351;47.560;9.708;2023-02-12T11:54:41;35.00;;;21.50;;
31782;SDS011;18351;47.560;9.708;2023-02-12T12:00:12;35.15;;;22.67;;
31782;SDS011;18351;47.560;9.708;2023-02-12T12:03:17;31.90;;;22.27;;
31782;SDS011;18351;47.560;9.708;2023-02-12T12:05:39;33.80;;;21.92;;
31782;SDS011;18351;47.560;9.708;2023-02-12T12:08:13;32.80;;;21.55;;
31782;SDS011;18351;47.560;9.708;2023-02-12T12:10:59;33.30;;;21.60;;
31782;SDS011;18351;47.560;9.708;2023-02-12T12:13:41;36.78;;;23.55;;
31782;SDS011;18351;47.560;9.708;2023-02-12T12:16:16;37.83;;;23.00;;
31782;SDS011;18351;47.560;9.708;2023-02-12T12:27:40;38.65;;;24.08;;
31782;SDS011;18351;47.560;9.708;2023-02-12T12:33:02;39.22;;;24.58;;
31782;SDS011;18351;47.560;9.708;2023-02-12T12:35:59;34.95;;;23.88;;
31782;SDS011;18351;47.560;9.708;2023-02-12T12:38:43;36.53;;;23.98;;
31782;SDS011;18351;47.560;9.708;2023-02-12T12:41:25;35.25;;;24.02;;
31782;SDS011;18351;47.560;9.708;2023-02-12T12:44:43;37.67;;;24.50;;
31782;SDS011;18351;47.560;9.708;2023-02-12T12:47:45;38.88;;;25.65;;
31782;SDS011;18351;47.560;9.708;2023-02-12T12:51:14;37.47;;;26.17;;
31782;SDS011;18351;47.560;9.708;2023-02-12T12:56:28;35.92;;;24.50;;
31782;SDS011;18351;47.560;9.708;2023-02-12T13:07:46;41.88;;;25.23;;
31782;SDS011;18351;47.560;9.708;2023-02-12T13:10:49;31.23;;;21.17;;
31782;SDS011;18351;47.560;9.708;2023-02-12T13:13:40;32.85;;;22.55;;
31782;SDS011;18351;47.560;9.708;2023-02-12T13:16:12;33.50;;;22.23;;
31782;SDS011;18351;47.560;9.708;2023-02-12T13:24:13;33.55;;;21.73;;
31782;SDS011;18351;47.560;9.708;2023-02-12T13:27:09;31.38;;;21.83;;
31782;SDS011;18351;47.560;9.708;2023-02-12T13:29:41;33.20;;;22.00;;
31782;SDS011;18351;47.560;9.708;2023-02-12T13:32:15;43.55;;;26.88;;
31782;SDS011;18351;47.560;9.708;2023-02-12T13:34:49;39.50;;;25.50;;
31782;SDS011;18351;47.560;9.708;2023-02-12T13:37:18;41.28;;;24.05;;
31782;SDS011;18351;47.560;9.708;2023-02-12T13:39:49;36.30;;;22.15;;
31782;SDS011;18351;47.560;9.708;2023-02-12T13:45:15;35.33;;;23.35;;
31782;SDS011;18351;47.560;9.708;2023-02-12T13:58:51;38.85;;;22.20;;
31782;SDS011;18351;47.560;9.708;2023-02-12T14:01:34;34.05;;;21.98;;
31782;SDS011;18351;47.560;9.708;2023-02-12T14:06:59;31.17;;;21.58;;
31782;SDS011;18351;47.560;9.708;2023-02-12T14:12:03;33.17;;;20.98;;
31782;SDS011;18351;47.560;9.708;2023-02-12T14:14:35;30.45;;;18.88;;
31782;SDS011;18351;47.560;9.708;2023-02-12T14:18:19;27.52;;;17.58;;
31782;SDS011;18351;47.560;9.708;2023-02-12T14:27:55;23.92;;;16.42;;
31782;SDS011;18351;47.560;9.708;2023-02-12T14:30:32;30.17;;;20.20;;
31782;SDS011;18351;47.560;9.708;2023-02-12T14:35:34;30.38;;;19.63;;
31782;SDS011;18351;47.560;9.708;2023-02-12T14:40:40;38.03;;;22.75;;
31782;SDS011;18351;47.560;9.708;2023-02-12T14:45:48;35.25;;;23.08;;
31782;SDS011;18351;47.560;9.708;2023-02-12T14:51:03;35.03;;;21.88;;
31782;SDS011;18351;47.560;9.708;2023-02-12T14:53:33;33.45;;;21.27;;
31782;SDS011;18351;47.560;9.708;2023-02-12T14:56:01;31.25;;;21.48;;
31782;SDS011;18351;47.560;9.708;2023-02-12T14:58:28;34.30;;;22.13;;
31782;SDS011;18351;47.560;9.708;2023-02-12T15:00:56;38.15;;;24.33;;
31782;SDS011;18351;47.560;9.708;2023-02-12T15:03:33;33.45;;;22.08;;
31782;SDS011;18351;47.560;9.708;2023-02-12T15:06:17;40.45;;;27.73;;
31782;SDS011;18351;47.560;9.708;2023-02-12T15:09:00;37.63;;;23.48;;
31782;SDS011;18351;47.560;9.708;2023-02-12T15:11:42;36.80;;;23.52;;
31782;SDS011;18351;47.560;9.708;2023-02-12T15:14:15;33.20;;;21.10;;
31782;SDS011;18351;47.560;9.708;2023-02-12T15:24:47;32.95;;;21.45;;
31782;SDS011;18351;47.560;9.708;2023-02-12T15:27:13;33.38;;;22.65;;
31782;SDS011;18351;47.560;9.708;2023-02-12T15:29:46;34.78;;;21.67;;
31782;SDS011;18351;47.560;9.708;2023-02-12T15:32:24;34.25;;;23.13;;
31782;SDS011;18351;47.560;9.708;2023-02-12T15:34:54;34.15;;;23.05;;
31782;SDS011;18351;47.560;9.708;2023-02-12T15:37:29;38.10;;;23.35;;
31782;SDS011;18351;47.560;9.708;2023-02-12T15:39:57;32.22;;;22.67;;
31782;SDS011;18351;47.560;9.708;2023-02-12T15:47:43;34.67;;;22.40;;
31782;SDS011;18351;47.560;9.708;2023-02-12T15:50:15;43.70;;;24.92;;
31782;SDS011;18351;47.560;9.708;2023-02-12T15:52:42;46.63;;;26.20;;
31782;SDS011;18351;47.560;9.708;2023-02-12T15:55:14;41.00;;;24.85;;
31782;SDS011;18351;47.560;9.708;2023-02-12T15:57:48;39.10;;;24.02;;
31782;SDS011;18351;47.560;9.708;2023-02-12T16:00:21;37.38;;;21.45;;
31782;SDS011;18351;47.560;9.708;2023-02-12T16:02:54;35.75;;;23.83;;
31782;SDS011;18351;47.560;9.708;2023-02-12T16:05:20;38.65;;;23.90;;
31782;SDS011;18351;47.560;9.708;2023-02-12T16:07:46;36.00;;;22.92;;
31782;SDS011;18351;47.560;9.708;2023-02-12T16:10:13;39.63;;;24.00;;
31782;SDS011;18351;47.560;9.708;2023-02-12T16:12:42;37.55;;;24.17;;
31782;SDS011;18351;47.560;9.708;2023-02-12T16:17:56;63.55;;;38.60;;
31782;SDS011;18351;47.560;9.708;2023-02-12T16:20:24;61.50;;;36.83;;
31782;SDS011;18351;47.560;9.708;2023-02-12T16:22:51;47.05;;;28.15;;
31782;SDS011;18351;47.560;9.708;2023-02-12T16:28:00;35.38;;;22.67;;
31782;SDS011;18351;47.560;9.708;2023-02-12T16:30:31;37.25;;;21.90;;
31782;SDS011;18351;47.560;9.708;2023-02-12T16:33:30;34.95;;;22.33;;
31782;SDS011;18351;47.560;9.708;2023-02-12T16:38:37;35.22;;;21.45;;
31782;SDS011;18351;47.560;9.708;2023-02-12T16:41:33;33.15;;;20.85;;
31782;SDS011;18351;47.560;9.708;2023-02-12T16:46:47;33.45;;;19.73;;
31782;SDS011;18351;47.560;9.708;2023-02-12T16:49:15;34.63;;;21.50;;
31782;SDS011;18351;47.560;9.708;2023-02-12T16:51:43;34.03;;;21.52;;
31782;SDS011;18351;47.560;9.708;2023-02-12T16:54:26;34.42;;;22.65;;
31782;SDS011;18351;47.560;9.708;2023-02-12T16:56:56;41.90;;;24.55;;
31782;SDS011;18351;47.560;9.708;2023-02-12T16:59:23;47.95;;;31.00;;
31782;SDS011;18351;47.560;9.708;2023-02-12T17:01:59;48.30;;;28.77;;
31782;SDS011;18351;47.560;9.708;2023-02-12T17:04:29;44.58;;;25.95;;
31782;SDS011;18351;47.560;9.708;2023-02-12T17:06:55;45.92;;;27.80;;
31782;SDS011;18351;47.560;9.708;2023-02-12T17:09:21;43.53;;;27.80;;
31782;SDS011;18351;47.560;9.708;2023-02-12T17:11:47;43.97;;;28.20;;
31782;SDS011;18351;47.560;9.708;2023-02-12T17:14:14;43.22;;;26.05;;
31782;SDS011;18351;47.560;9.708;2023-02-12T17:16:44;43.95;;;26.80;;
31782;SDS011;18351;47.560;9.708;2023-02-12T17:19:10;63.13;;;34.17;;
31782;SDS011;18351;47.560;9.708;2023-02-12T17:21:37;69.15;;;36.03;;
31782;SDS011;18351;47.560;9.708;2023-02-12T17:24:18;53.78;;;31.73;;
31782;SDS011;18351;47.560;9.708;2023-02-12T17:26:46;59.45;;;31.90;;
31782;SDS011;18351;47.560;9.708;2023-02-12T17:29:14;51.70;;;30.00;;
31782;SDS011;18351;47.560;9.708;2023-02-12T17:31:40;56.20;;;29.50;;
31782;SDS011;18351;47.560;9.708;2023-02-12T17:34:06;53.13;;;31.70;;